Airfield :
LOGIN :

Register | Disclaimer

   EN    FR    IT 

 










Legend :    VFR   Marginal VFR   IFR   Intensive IFR   Very Intensive IFR
Visi :
Ceiling :
>= 8 km
>= 3000ft
5 to 8 km
1000 to 3000 ft
1500m to 5 km
500 to 1000 ft
800 to 1500m
200 to 500 ft
< 800m
< 200 ft
Symbols :   Thunderstorms  Fog  Heavy snow  Heavy precipitations  Wind > 20 kt
SIGMETs :     Misc.  Thunderstorms  Icing  Turbulence  Mountain Waves  Volcanic Ashes






- Airport Elevation : 978 ft
- IATA code : LNZ


LOWL - Linz

CURRENT METAR :
  • 190950Z VRB04KT 9999 FEW050 28/17 Q1016 NOSIG

EXPIRED METARs :
  • 190920Z 28005KT 210V330 9999 FEW050 27/18 Q1017 NOSIG
  • 190850Z 29003KT 220V350 9999 FEW050 27/17 Q1017 NOSIG
  • 190820Z VRB03KT 9999 FEW080 26/17 Q1017 NOSIG
  • 190750Z 32003KT 250V060 9999 SCT080 25/16 Q1017 NOSIG
  • 190720Z 29003KT 230V360 9999 BKN080 25/16 Q1017 NOSIG

TAF TAF LOWL
Valid from the 19 at 06:00 until the 20 at 06:00 UTC


190515Z 1906/2006 28004KT CAVOK TX33/1914Z TN18/2003Z
TEMPO 1912/1918 9999 FEW060CB



MET'MAP, your aeronautical weather chart ! - Copyright ORBIFLY December 2007 - Disclaimer

ORBIFLY MET'MAP TEAM :

Programming & Development : Alexandra Zaïnal
Concept & original design : Baudouin d'Aumeries
Assistance for programming : Marc-Olivier Méhu
Technical & hardware support : Manuel Goepfert

Contact : metmap@orbifly.com




SOURCES & CREDITS :

   NOAA